sensor_id;sensor_type;location;lat;lon;timestamp;temperature;humidity
43087;DHT22;28708;52.224;6.924;2023-05-16T00:01:27;11.40;99.90
43087;DHT22;28708;52.224;6.924;2023-05-16T00:03:55;11.20;99.90
43087;DHT22;28708;52.224;6.924;2023-05-16T00:06:21;11.30;99.90
43087;DHT22;28708;52.224;6.924;2023-05-16T00:08:48;11.20;99.90
43087;DHT22;28708;52.224;6.924;2023-05-16T00:11:15;11.30;99.90
43087;DHT22;28708;52.224;6.924;2023-05-16T00:13:41;11.30;99.90
43087;DHT22;28708;52.224;6.924;2023-05-16T00:16:07;11.40;99.90
43087;DHT22;28708;52.224;6.924;2023-05-16T00:18:34;11.40;99.90
43087;DHT22;28708;52.224;6.924;2023-05-16T00:21:02;11.30;99.90
43087;DHT22;28708;52.224;6.924;2023-05-16T00:23:29;11.40;99.90
43087;DHT22;28708;52.224;6.924;2023-05-16T00:25:56;11.40;99.90
43087;DHT22;28708;52.224;6.924;2023-05-16T00:28:22;11.40;99.90
43087;DHT22;28708;52.224;6.924;2023-05-16T00:30:47;11.30;99.90
43087;DHT22;28708;52.224;6.924;2023-05-16T00:33:14;11.40;99.90
43087;DHT22;28708;52.224;6.924;2023-05-16T00:35:40;11.40;99.90
43087;DHT22;28708;52.224;6.924;2023-05-16T00:38:06;11.40;99.90
43087;DHT22;28708;52.224;6.924;2023-05-16T00:40:32;11.30;99.90
43087;DHT22;28708;52.224;6.924;2023-05-16T00:42:57;11.30;99.90
43087;DHT22;28708;52.224;6.924;2023-05-16T00:45:25;11.30;99.90
43087;DHT22;28708;52.224;6.924;2023-05-16T00:47:52;11.20;99.90
43087;DHT22;28708;52.224;6.924;2023-05-16T00:50:18;11.20;99.90
43087;DHT22;28708;52.224;6.924;2023-05-16T00:52:44;11.20;99.90
43087;DHT22;28708;52.224;6.924;2023-05-16T00:55:10;11.10;99.90
43087;DHT22;28708;52.224;6.924;2023-05-16T00:57:39;11.10;99.90
43087;DHT22;28708;52.224;6.924;2023-05-16T01:00:06;11.20;99.90
43087;DHT22;28708;52.224;6.924;2023-05-16T01:02:35;11.20;99.90
43087;DHT22;28708;52.224;6.924;2023-05-16T01:05:02;11.10;99.90
43087;DHT22;28708;52.224;6.924;2023-05-16T01:07:30;11.10;99.90
43087;DHT22;28708;52.224;6.924;2023-05-16T01:09:56;10.90;99.90
43087;DHT22;28708;52.224;6.924;2023-05-16T01:12:47;10.90;99.90
43087;DHT22;28708;52.224;6.924;2023-05-16T01:20:46;10.70;99.90
43087;DHT22;28708;52.224;6.924;2023-05-16T01:28:06;10.60;99.90
43087;DHT22;28708;52.224;6.924;2023-05-16T01:30:36;10.60;99.90
43087;DHT22;28708;52.224;6.924;2023-05-16T01:33:02;10.50;99.90
43087;DHT22;28708;52.224;6.924;2023-05-16T01:35:28;10.50;99.90
43087;DHT22;28708;52.224;6.924;2023-05-16T01:40:43;10.20;99.90
43087;DHT22;28708;52.224;6.924;2023-05-16T01:43:17;10.20;99.90
43087;DHT22;28708;52.224;6.924;2023-05-16T01:45:50;10.20;99.90
43087;DHT22;28708;52.224;6.924;2023-05-16T01:48:27;10.30;99.90
43087;DHT22;28708;52.224;6.924;2023-05-16T01:50:56;10.20;99.90
43087;DHT22;28708;52.224;6.924;2023-05-16T01:53:27;10.20;99.90
43087;DHT22;28708;52.224;6.924;2023-05-16T01:55:59;10.10;99.90
43087;DHT22;28708;52.224;6.924;2023-05-16T01:58:29;10.10;99.90
43087;DHT22;28708;52.224;6.924;2023-05-16T02:01:02;10.00;99.90
43087;DHT22;28708;52.224;6.924;2023-05-16T02:03:29;10.10;99.90
43087;DHT22;28708;52.224;6.924;2023-05-16T02:05:56;9.90;99.90
43087;DHT22;28708;52.224;6.924;2023-05-16T02:08:22;10.00;99.90
43087;DHT22;28708;52.224;6.924;2023-05-16T02:10:49;9.90;99.90
43087;DHT22;28708;52.224;6.924;2023-05-16T02:13:14;9.90;99.90
43087;DHT22;28708;52.224;6.924;2023-05-16T02:15:40;9.80;99.90
43087;DHT22;28708;52.224;6.924;2023-05-16T02:18:06;9.90;99.90
43087;DHT22;28708;52.224;6.924;2023-05-16T02:20:31;9.90;99.90
43087;DHT22;28708;52.224;6.924;2023-05-16T02:23:00;9.70;99.90
43087;DHT22;28708;52.224;6.924;2023-05-16T02:25:27;9.70;99.90
43087;DHT22;28708;52.224;6.924;2023-05-16T02:27:54;9.50;99.90
43087;DHT22;28708;52.224;6.924;2023-05-16T02:30:19;9.50;99.90
43087;DHT22;28708;52.224;6.924;2023-05-16T02:32:45;9.50;99.90
43087;DHT22;28708;52.224;6.924;2023-05-16T02:35:11;9.50;99.90
43087;DHT22;28708;52.224;6.924;2023-05-16T02:37:37;9.50;99.90
43087;DHT22;28708;52.224;6.924;2023-05-16T02:40:03;9.60;99.90
43087;DHT22;28708;52.224;6.924;2023-05-16T02:42:35;9.60;99.90
43087;DHT22;28708;52.224;6.924;2023-05-16T02:45:01;9.50;99.90
43087;DHT22;28708;52.224;6.924;2023-05-16T02:47:27;9.50;99.90
43087;DHT22;28708;52.224;6.924;2023-05-16T02:49:52;9.50;99.90
43087;DHT22;28708;52.224;6.924;2023-05-16T02:52:18;9.30;99.90
43087;DHT22;28708;52.224;6.924;2023-05-16T02:54:44;9.40;99.90
43087;DHT22;28708;52.224;6.924;2023-05-16T02:57:10;9.30;99.90
43087;DHT22;28708;52.224;6.924;2023-05-16T02:59:36;9.40;99.90
43087;DHT22;28708;52.224;6.924;2023-05-16T03:02:02;9.30;99.90
43087;DHT22;28708;52.224;6.924;2023-05-16T03:04:28;9.30;99.90
43087;DHT22;28708;52.224;6.924;2023-05-16T03:06:53;9.20;99.90
43087;DHT22;28708;52.224;6.924;2023-05-16T03:09:19;9.20;99.90
43087;DHT22;28708;52.224;6.924;2023-05-16T03:11:45;9.20;99.90
43087;DHT22;28708;52.224;6.924;2023-05-16T03:14:11;9.20;99.90
43087;DHT22;28708;52.224;6.924;2023-05-16T03:16:37;9.00;99.90
43087;DHT22;28708;52.224;6.924;2023-05-16T03:19:04;9.10;99.90
43087;DHT22;28708;52.224;6.924;2023-05-16T03:21:29;9.20;99.90
43087;DHT22;28708;52.224;6.924;2023-05-16T03:23:56;9.20;99.90
43087;DHT22;28708;52.224;6.924;2023-05-16T03:26:26;9.10;99.90
43087;DHT22;28708;52.224;6.924;2023-05-16T03:28:51;9.10;99.90
43087;DHT22;28708;52.224;6.924;2023-05-16T03:31:17;9.20;99.90
43087;DHT22;28708;52.224;6.924;2023-05-16T03:33:44;9.10;99.90
43087;DHT22;28708;52.224;6.924;2023-05-16T03:36:09;9.10;99.90
43087;DHT22;28708;52.224;6.924;2023-05-16T03:38:36;9.20;99.90
43087;DHT22;28708;52.224;6.924;2023-05-16T03:41:01;9.20;99.90
43087;DHT22;28708;52.224;6.924;2023-05-16T03:43:27;9.10;99.90
43087;DHT22;28708;52.224;6.924;2023-05-16T03:45:53;9.00;99.90
43087;DHT22;28708;52.224;6.924;2023-05-16T03:48:19;8.90;99.90
43087;DHT22;28708;52.224;6.924;2023-05-16T03:50:44;8.90;99.90
43087;DHT22;28708;52.224;6.924;2023-05-16T03:53:10;8.90;99.90
43087;DHT22;28708;52.224;6.924;2023-05-16T03:55:36;8.90;99.90
43087;DHT22;28708;52.224;6.924;2023-05-16T03:58:02;8.80;99.90
43087;DHT22;28708;52.224;6.924;2023-05-16T04:00:28;8.90;99.90
43087;DHT22;28708;52.224;6.924;2023-05-16T04:02:53;8.70;99.90
43087;DHT22;28708;52.224;6.924;2023-05-16T04:05:19;8.80;99.90
43087;DHT22;28708;52.224;6.924;2023-05-16T04:07:45;8.80;99.90
43087;DHT22;28708;52.224;6.924;2023-05-16T04:10:11;8.80;99.90
43087;DHT22;28708;52.224;6.924;2023-05-16T04:12:37;8.80;99.90
43087;DHT22;28708;52.224;6.924;2023-05-16T04:15:03;8.90;99.90
43087;DHT22;28708;52.224;6.924;2023-05-16T04:17:30;8.90;99.90
43087;DHT22;28708;52.224;6.924;2023-05-16T04:19:56;8.80;99.90
43087;DHT22;28708;52.224;6.924;2023-05-16T04:22:21;8.90;99.90
43087;DHT22;28708;52.224;6.924;2023-05-16T04:24:47;8.80;99.90
43087;DHT22;28708;52.224;6.924;2023-05-16T04:27:13;8.80;99.90
43087;DHT22;28708;52.224;6.924;2023-05-16T04:29:39;8.80;99.90
43087;DHT22;28708;52.224;6.924;2023-05-16T04:32:05;8.90;99.90
43087;DHT22;28708;52.224;6.924;2023-05-16T04:34:32;8.90;99.90
43087;DHT22;28708;52.224;6.924;2023-05-16T04:36:58;8.70;99.90
43087;DHT22;28708;52.224;6.924;2023-05-16T04:39:24;8.80;99.90
43087;DHT22;28708;52.224;6.924;2023-05-16T04:41:50;8.90;99.90
43087;DHT22;28708;52.224;6.924;2023-05-16T04:44:16;9.00;99.90
43087;DHT22;28708;52.224;6.924;2023-05-16T04:46:41;8.80;99.90
43087;DHT22;28708;52.224;6.924;2023-05-16T04:49:07;8.70;99.90
43087;DHT22;28708;52.224;6.924;2023-05-16T04:51:33;8.90;99.90
43087;DHT22;28708;52.224;6.924;2023-05-16T04:53:59;9.00;99.90
43087;DHT22;28708;52.224;6.924;2023-05-16T04:56:25;9.00;99.90
43087;DHT22;28708;52.224;6.924;2023-05-16T04:58:54;9.00;99.90
43087;DHT22;28708;52.224;6.924;2023-05-16T05:01:20;9.10;99.90
43087;DHT22;28708;52.224;6.924;2023-05-16T05:03:45;9.10;99.90
43087;DHT22;28708;52.224;6.924;2023-05-16T05:06:11;9.20;99.90
43087;DHT22;28708;52.224;6.924;2023-05-16T05:08:37;9.10;99.90
43087;DHT22;28708;52.224;6.924;2023-05-16T05:11:02;9.10;99.90
43087;DHT22;28708;52.224;6.924;2023-05-16T05:13:28;9.20;99.90
43087;DHT22;28708;52.224;6.924;2023-05-16T05:15:54;9.30;99.90
43087;DHT22;28708;52.224;6.924;2023-05-16T05:18:19;9.20;99.90
43087;DHT22;28708;52.224;6.924;2023-05-16T05:20:45;9.30;99.90
43087;DHT22;28708;52.224;6.924;2023-05-16T05:23:11;9.20;99.90
43087;DHT22;28708;52.224;6.924;2023-05-16T05:25:37;9.40;99.90
43087;DHT22;28708;52.224;6.924;2023-05-16T05:28:03;9.30;99.90
43087;DHT22;28708;52.224;6.924;2023-05-16T05:30:29;9.50;99.90
43087;DHT22;28708;52.224;6.924;2023-05-16T05:32:54;9.60;99.90
43087;DHT22;28708;52.224;6.924;2023-05-16T05:35:20;9.70;99.90
43087;DHT22;28708;52.224;6.924;2023-05-16T05:37:46;9.80;99.90
43087;DHT22;28708;52.224;6.924;2023-05-16T05:40:12;9.70;99.90
43087;DHT22;28708;52.224;6.924;2023-05-16T05:42:37;9.60;99.90
43087;DHT22;28708;52.224;6.924;2023-05-16T05:45:03;9.70;99.90
43087;DHT22;28708;52.224;6.924;2023-05-16T05:47:29;9.80;99.90
43087;DHT22;28708;52.224;6.924;2023-05-16T05:49:55;9.80;99.90
43087;DHT22;28708;52.224;6.924;2023-05-16T05:52:21;10.00;99.90
43087;DHT22;28708;52.224;6.924;2023-05-16T05:54:47;10.00;99.90
43087;DHT22;28708;52.224;6.924;2023-05-16T05:57:13;10.00;99.90
43087;DHT22;28708;52.224;6.924;2023-05-16T05:59:38;10.00;99.90
43087;DHT22;28708;52.224;6.924;2023-05-16T06:02:05;10.00;99.90
43087;DHT22;28708;52.224;6.924;2023-05-16T06:04:30;10.00;99.90
43087;DHT22;28708;52.224;6.924;2023-05-16T06:06:56;10.00;99.90
43087;DHT22;28708;52.224;6.924;2023-05-16T06:09:22;10.10;99.90
43087;DHT22;28708;52.224;6.924;2023-05-16T06:11:49;10.10;99.90
43087;DHT22;28708;52.224;6.924;2023-05-16T06:14:15;10.20;99.90
43087;DHT22;28708;52.224;6.924;2023-05-16T06:16:40;10.30;99.90
43087;DHT22;28708;52.224;6.924;2023-05-16T06:19:06;10.30;99.90
43087;DHT22;28708;52.224;6.924;2023-05-16T06:21:32;10.40;99.90
43087;DHT22;28708;52.224;6.924;2023-05-16T06:23:58;10.40;99.90
43087;DHT22;28708;52.224;6.924;2023-05-16T06:26:23;10.40;99.90
43087;DHT22;28708;52.224;6.924;2023-05-16T06:28:49;10.50;99.90
43087;DHT22;28708;52.224;6.924;2023-05-16T06:31:15;10.60;99.90
43087;DHT22;28708;52.224;6.924;2023-05-16T06:33:40;10.80;99.90
43087;DHT22;28708;52.224;6.924;2023-05-16T06:36:06;10.70;99.90
43087;DHT22;28708;52.224;6.924;2023-05-16T06:38:32;10.90;99.90
43087;DHT22;28708;52.224;6.924;2023-05-16T06:40:58;11.00;99.90
43087;DHT22;28708;52.224;6.924;2023-05-16T06:43:23;11.10;99.90
43087;DHT22;28708;52.224;6.924;2023-05-16T06:45:49;11.10;99.90
43087;DHT22;28708;52.224;6.924;2023-05-16T06:48:17;11.10;99.90
43087;DHT22;28708;52.224;6.924;2023-05-16T06:50:46;11.30;99.90
43087;DHT22;28708;52.224;6.924;2023-05-16T06:53:12;11.50;99.90
43087;DHT22;28708;52.224;6.924;2023-05-16T06:55:37;11.70;99.90
43087;DHT22;28708;52.224;6.924;2023-05-16T06:58:03;11.70;99.90
43087;DHT22;28708;52.224;6.924;2023-05-16T07:00:29;11.70;99.90
43087;DHT22;28708;52.224;6.924;2023-05-16T07:02:54;11.80;99.90
43087;DHT22;28708;52.224;6.924;2023-05-16T07:05:20;11.70;99.90
43087;DHT22;28708;52.224;6.924;2023-05-16T07:07:46;11.80;99.90
43087;DHT22;28708;52.224;6.924;2023-05-16T07:10:14;11.80;99.90
43087;DHT22;28708;52.224;6.924;2023-05-16T07:12:41;11.70;99.90
43087;DHT22;28708;52.224;6.924;2023-05-16T07:15:07;11.60;99.90
43087;DHT22;28708;52.224;6.924;2023-05-16T07:17:33;11.60;99.90
43087;DHT22;28708;52.224;6.924;2023-05-16T07:19:59;11.50;99.90
43087;DHT22;28708;52.224;6.924;2023-05-16T07:22:25;11.60;99.90
43087;DHT22;28708;52.224;6.924;2023-05-16T07:24:51;11.70;99.90
43087;DHT22;28708;52.224;6.924;2023-05-16T07:27:18;11.90;99.90
43087;DHT22;28708;52.224;6.924;2023-05-16T07:29:44;11.90;99.90
43087;DHT22;28708;52.224;6.924;2023-05-16T07:32:10;11.90;99.90
43087;DHT22;28708;52.224;6.924;2023-05-16T07:34:36;12.00;99.90
43087;DHT22;28708;52.224;6.924;2023-05-16T07:37:01;12.10;99.90
43087;DHT22;28708;52.224;6.924;2023-05-16T07:39:27;12.30;99.90
43087;DHT22;28708;52.224;6.924;2023-05-16T07:41:53;12.30;99.90
43087;DHT22;28708;52.224;6.924;2023-05-16T07:44:19;12.10;99.90
43087;DHT22;28708;52.224;6.924;2023-05-16T07:46:44;12.00;99.90
43087;DHT22;28708;52.224;6.924;2023-05-16T07:49:10;11.80;99.90
43087;DHT22;28708;52.224;6.924;2023-05-16T07:51:36;11.80;99.90
43087;DHT22;28708;52.224;6.924;2023-05-16T07:54:01;12.00;99.90
43087;DHT22;28708;52.224;6.924;2023-05-16T07:56:27;12.40;99.90
43087;DHT22;28708;52.224;6.924;2023-05-16T07:58:53;12.90;99.90
43087;DHT22;28708;52.224;6.924;2023-05-16T08:01:19;13.10;99.90
43087;DHT22;28708;52.224;6.924;2023-05-16T08:03:45;13.20;99.90
43087;DHT22;28708;52.224;6.924;2023-05-16T08:06:10;13.30;99.90
43087;DHT22;28708;52.224;6.924;2023-05-16T08:08:36;13.20;99.90
43087;DHT22;28708;52.224;6.924;2023-05-16T08:11:02;13.00;99.90
43087;DHT22;28708;52.224;6.924;2023-05-16T08:13:29;13.00;99.90
43087;DHT22;28708;52.224;6.924;2023-05-16T08:15:54;13.00;99.90
43087;DHT22;28708;52.224;6.924;2023-05-16T08:18:20;12.90;99.90
43087;DHT22;28708;52.224;6.924;2023-05-16T08:20:46;13.00;99.90
43087;DHT22;28708;52.224;6.924;2023-05-16T08:23:11;13.20;99.90
43087;DHT22;28708;52.224;6.924;2023-05-16T08:25:37;13.70;99.90
43087;DHT22;28708;52.224;6.924;2023-05-16T08:28:03;14.50;99.90
43087;DHT22;28708;52.224;6.924;2023-05-16T08:30:28;15.10;99.90
43087;DHT22;28708;52.224;6.924;2023-05-16T08:32:54;15.60;99.90
43087;DHT22;28708;52.224;6.924;2023-05-16T08:35:20;15.90;99.90
43087;DHT22;28708;52.224;6.924;2023-05-16T08:37:45;17.10;99.90
43087;DHT22;28708;52.224;6.924;2023-05-16T08:40:11;18.30;99.90
43087;DHT22;28708;52.224;6.924;2023-05-16T08:42:38;17.70;98.10
43087;DHT22;28708;52.224;6.924;2023-05-16T08:45:06;17.90;97.10
43087;DHT22;28708;52.224;6.924;2023-05-16T08:47:32;17.70;95.70
43087;DHT22;28708;52.224;6.924;2023-05-16T08:50:02;16.40;98.10
43087;DHT22;28708;52.224;6.924;2023-05-16T08:52:30;15.90;98.80
43087;DHT22;28708;52.224;6.924;2023-05-16T08:55:03;15.20;99.90
43087;DHT22;28708;52.224;6.924;2023-05-16T08:57:34;14.50;99.90
43087;DHT22;28708;52.224;6.924;2023-05-16T09:00:00;14.10;99.90
43087;DHT22;28708;52.224;6.924;2023-05-16T09:02:29;13.70;99.90
43087;DHT22;28708;52.224;6.924;2023-05-16T09:04:55;14.70;99.90
43087;DHT22;28708;52.224;6.924;2023-05-16T09:07:22;16.30;99.90
43087;DHT22;28708;52.224;6.924;2023-05-16T09:09:48;16.20;99.90
43087;DHT22;28708;52.224;6.924;2023-05-16T09:12:13;16.80;99.90
43087;DHT22;28708;52.224;6.924;2023-05-16T09:14:39;16.90;99.80
43087;DHT22;28708;52.224;6.924;2023-05-16T09:17:07;16.90;98.50
43087;DHT22;28708;52.224;6.924;2023-05-16T09:19:40;17.20;99.90
43087;DHT22;28708;52.224;6.924;2023-05-16T09:22:13;17.00;98.10
43087;DHT22;28708;52.224;6.924;2023-05-16T09:24:40;17.90;97.80
43087;DHT22;28708;52.224;6.924;2023-05-16T09:27:08;18.90;95.70
43087;DHT22;28708;52.224;6.924;2023-05-16T09:29:34;19.60;93.70
43087;DHT22;28708;52.224;6.924;2023-05-16T09:32:13;20.10;92.10
43087;DHT22;28708;52.224;6.924;2023-05-16T09:34:46;19.50;90.40
43087;DHT22;28708;52.224;6.924;2023-05-16T09:37:14;17.90;91.70
43087;DHT22;28708;52.224;6.924;2023-05-16T09:39:47;17.90;92.90
43087;DHT22;28708;52.224;6.924;2023-05-16T09:42:17;17.10;91.80
43087;DHT22;28708;52.224;6.924;2023-05-16T09:44:48;16.30;93.30
43087;DHT22;28708;52.224;6.924;2023-05-16T09:47:16;16.50;93.10
43087;DHT22;28708;52.224;6.924;2023-05-16T09:49:43;16.30;93.70
43087;DHT22;28708;52.224;6.924;2023-05-16T09:52:09;15.40;94.00
43087;DHT22;28708;52.224;6.924;2023-05-16T09:54:35;14.90;96.20
43087;DHT22;28708;52.224;6.924;2023-05-16T09:57:01;14.50;97.80
43087;DHT22;28708;52.224;6.924;2023-05-16T09:59:30;15.20;98.20
43087;DHT22;28708;52.224;6.924;2023-05-16T10:01:59;15.30;97.70
43087;DHT22;28708;52.224;6.924;2023-05-16T10:04:25;15.70;97.30
43087;DHT22;28708;52.224;6.924;2023-05-16T10:06:54;16.30;96.00
43087;DHT22;28708;52.224;6.924;2023-05-16T10:09:20;17.90;95.50
43087;DHT22;28708;52.224;6.924;2023-05-16T10:11:47;17.70;94.00
43087;DHT22;28708;52.224;6.924;2023-05-16T10:14:17;17.10;95.00
43087;DHT22;28708;52.224;6.924;2023-05-16T10:16:46;17.40;94.30
43087;DHT22;28708;52.224;6.924;2023-05-16T10:19:12;18.20;93.90
43087;DHT22;28708;52.224;6.924;2023-05-16T10:21:39;20.10;90.40
43087;DHT22;28708;52.224;6.924;2023-05-16T10:24:10;19.10;90.20
43087;DHT22;28708;52.224;6.924;2023-05-16T10:26:38;17.60;91.40
43087;DHT22;28708;52.224;6.924;2023-05-16T10:29:04;16.30;93.20
43087;DHT22;28708;52.224;6.924;2023-05-16T10:31:30;15.60;98.00
43087;DHT22;28708;52.224;6.924;2023-05-16T10:33:56;14.70;99.90
43087;DHT22;28708;52.224;6.924;2023-05-16T10:36:22;14.20;99.90
43087;DHT22;28708;52.224;6.924;2023-05-16T10:38:49;14.20;99.90
43087;DHT22;28708;52.224;6.924;2023-05-16T10:41:16;14.50;99.90
43087;DHT22;28708;52.224;6.924;2023-05-16T10:43:44;14.50;99.90
43087;DHT22;28708;52.224;6.924;2023-05-16T10:46:10;16.10;99.90
43087;DHT22;28708;52.224;6.924;2023-05-16T10:48:41;17.90;99.90
43087;DHT22;28708;52.224;6.924;2023-05-16T10:53:52;19.80;96.10
43087;DHT22;28708;52.224;6.924;2023-05-16T10:56:26;20.40;90.80
43087;DHT22;28708;52.224;6.924;2023-05-16T10:58:53;20.80;90.00
43087;DHT22;28708;52.224;6.924;2023-05-16T11:01:23;20.70;86.80
43087;DHT22;28708;52.224;6.924;2023-05-16T11:14:06;19.60;78.60
43087;DHT22;28708;52.224;6.924;2023-05-16T11:16:33;19.90;79.80
43087;DHT22;28708;52.224;6.924;2023-05-16T11:19:06;19.20;81.40
43087;DHT22;28708;52.224;6.924;2023-05-16T11:22:03;19.40;82.10
43087;DHT22;28708;52.224;6.924;2023-05-16T11:24:30;19.80;80.30
43087;DHT22;28708;52.224;6.924;2023-05-16T11:26:58;20.30;77.80
43087;DHT22;28708;52.224;6.924;2023-05-16T11:29:29;19.50;74.80
43087;DHT22;28708;52.224;6.924;2023-05-16T11:32:01;19.10;76.80
43087;DHT22;28708;52.224;6.924;2023-05-16T11:34:29;18.00;78.30
43087;DHT22;28708;52.224;6.924;2023-05-16T11:36:55;17.30;83.00
43087;DHT22;28708;52.224;6.924;2023-05-16T11:39:21;17.20;81.60
43087;DHT22;28708;52.224;6.924;2023-05-16T11:41:50;17.50;82.00
43087;DHT22;28708;52.224;6.924;2023-05-16T11:44:17;17.10;81.60
43087;DHT22;28708;52.224;6.924;2023-05-16T11:46:42;16.60;84.60
43087;DHT22;28708;52.224;6.924;2023-05-16T11:49:08;16.50;83.50
43087;DHT22;28708;52.224;6.924;2023-05-16T11:51:43;16.40;87.30
43087;DHT22;28708;52.224;6.924;2023-05-16T11:54:09;16.20;86.70
43087;DHT22;28708;52.224;6.924;2023-05-16T11:56:35;16.20;86.20
43087;DHT22;28708;52.224;6.924;2023-05-16T11:59:02;16.20;86.10
43087;DHT22;28708;52.224;6.924;2023-05-16T12:01:36;15.90;86.10
43087;DHT22;28708;52.224;6.924;2023-05-16T12:04:07;16.40;86.90
43087;DHT22;28708;52.224;6.924;2023-05-16T12:06:34;17.00;88.40
43087;DHT22;28708;52.224;6.924;2023-05-16T12:08:59;16.80;88.00
43087;DHT22;28708;52.224;6.924;2023-05-16T12:11:29;16.40;85.40
43087;DHT22;28708;52.224;6.924;2023-05-16T12:13:54;16.40;86.40
43087;DHT22;28708;52.224;6.924;2023-05-16T12:16:20;16.90;87.50
43087;DHT22;28708;52.224;6.924;2023-05-16T12:18:47;16.90;88.10
43087;DHT22;28708;52.224;6.924;2023-05-16T12:21:14;17.00;88.90
43087;DHT22;28708;52.224;6.924;2023-05-16T12:23:41;17.30;88.10
43087;DHT22;28708;52.224;6.924;2023-05-16T12:26:07;17.20;82.80
43087;DHT22;28708;52.224;6.924;2023-05-16T12:28:34;17.30;82.90
43087;DHT22;28708;52.224;6.924;2023-05-16T12:31:01;17.30;82.80
43087;DHT22;28708;52.224;6.924;2023-05-16T12:33:27;17.30;84.00
43087;DHT22;28708;52.224;6.924;2023-05-16T12:35:53;17.20;84.10
43087;DHT22;28708;52.224;6.924;2023-05-16T12:38:20;17.00;85.70
43087;DHT22;28708;52.224;6.924;2023-05-16T12:40:46;16.80;85.60
43087;DHT22;28708;52.224;6.924;2023-05-16T12:45:40;17.10;88.40
43087;DHT22;28708;52.224;6.924;2023-05-16T12:48:12;16.90;89.30
43087;DHT22;28708;52.224;6.924;2023-05-16T12:50:39;16.30;88.70
43087;DHT22;28708;52.224;6.924;2023-05-16T12:53:11;16.80;90.00
43087;DHT22;28708;52.224;6.924;2023-05-16T12:55:37;16.70;88.40
43087;DHT22;28708;52.224;6.924;2023-05-16T12:58:03;16.60;90.10
43087;DHT22;28708;52.224;6.924;2023-05-16T13:00:28;16.40;87.50
43087;DHT22;28708;52.224;6.924;2023-05-16T13:02:56;16.10;88.00
43087;DHT22;28708;52.224;6.924;2023-05-16T13:05:21;16.00;88.70
43087;DHT22;28708;52.224;6.924;2023-05-16T13:07:48;15.90;88.90
43087;DHT22;28708;52.224;6.924;2023-05-16T13:10:16;15.80;88.00
43087;DHT22;28708;52.224;6.924;2023-05-16T13:12:42;15.40;88.90
43087;DHT22;28708;52.224;6.924;2023-05-16T13:15:09;15.20;90.00
43087;DHT22;28708;52.224;6.924;2023-05-16T13:17:37;15.00;91.10
43087;DHT22;28708;52.224;6.924;2023-05-16T13:20:04;14.40;92.40
43087;DHT22;28708;52.224;6.924;2023-05-16T13:22:40;14.60;93.10
43087;DHT22;28708;52.224;6.924;2023-05-16T13:25:07;14.80;93.30
43087;DHT22;28708;52.224;6.924;2023-05-16T13:27:33;14.80;93.50
43087;DHT22;28708;52.224;6.924;2023-05-16T13:29:59;14.90;93.90
43087;DHT22;28708;52.224;6.924;2023-05-16T13:32:25;14.80;93.50
43087;DHT22;28708;52.224;6.924;2023-05-16T13:34:51;15.00;94.10
43087;DHT22;28708;52.224;6.924;2023-05-16T13:37:17;15.90;94.40
43087;DHT22;28708;52.224;6.924;2023-05-16T13:39:43;16.70;92.60
43087;DHT22;28708;52.224;6.924;2023-05-16T13:42:09;16.60;90.70
43087;DHT22;28708;52.224;6.924;2023-05-16T13:44:35;16.50;92.00
43087;DHT22;28708;52.224;6.924;2023-05-16T13:47:01;15.60;91.90
43087;DHT22;28708;52.224;6.924;2023-05-16T13:49:28;16.20;92.40
43087;DHT22;28708;52.224;6.924;2023-05-16T13:51:53;16.50;92.60
43087;DHT22;28708;52.224;6.924;2023-05-16T13:54:19;16.00;91.20
43087;DHT22;28708;52.224;6.924;2023-05-16T13:56:47;15.40;93.60
43087;DHT22;28708;52.224;6.924;2023-05-16T13:59:13;15.60;94.10
43087;DHT22;28708;52.224;6.924;2023-05-16T14:01:38;15.60;93.90
43087;DHT22;28708;52.224;6.924;2023-05-16T14:04:04;15.50;93.40
43087;DHT22;28708;52.224;6.924;2023-05-16T14:06:30;15.40;94.40
43087;DHT22;28708;52.224;6.924;2023-05-16T14:08:56;15.20;93.40
43087;DHT22;28708;52.224;6.924;2023-05-16T14:11:21;15.00;93.80
43087;DHT22;28708;52.224;6.924;2023-05-16T14:13:51;15.10;94.90
43087;DHT22;28708;52.224;6.924;2023-05-16T14:16:17;15.00;93.80
43087;DHT22;28708;52.224;6.924;2023-05-16T14:18:43;14.80;94.00
43087;DHT22;28708;52.224;6.924;2023-05-16T14:21:08;14.70;94.10
43087;DHT22;28708;52.224;6.924;2023-05-16T14:23:34;14.60;94.50
43087;DHT22;28708;52.224;6.924;2023-05-16T14:26:00;14.70;95.30
43087;DHT22;28708;52.224;6.924;2023-05-16T14:28:27;14.70;95.70
43087;DHT22;28708;52.224;6.924;2023-05-16T14:30:53;14.60;95.20
43087;DHT22;28708;52.224;6.924;2023-05-16T14:33:18;14.60;96.80
43087;DHT22;28708;52.224;6.924;2023-05-16T14:35:44;14.40;97.90
43087;DHT22;28708;52.224;6.924;2023-05-16T14:38:10;14.30;98.30
43087;DHT22;28708;52.224;6.924;2023-05-16T14:40:35;14.30;98.40
43087;DHT22;28708;52.224;6.924;2023-05-16T14:43:01;14.30;99.90
43087;DHT22;28708;52.224;6.924;2023-05-16T14:45:28;14.20;99.90
43087;DHT22;28708;52.224;6.924;2023-05-16T14:47:54;13.90;99.90
43087;DHT22;28708;52.224;6.924;2023-05-16T14:50:20;13.90;99.90
43087;DHT22;28708;52.224;6.924;2023-05-16T14:52:46;13.80;99.90
43087;DHT22;28708;52.224;6.924;2023-05-16T14:55:11;13.70;99.90
43087;DHT22;28708;52.224;6.924;2023-05-16T14:57:37;13.80;99.90
43087;DHT22;28708;52.224;6.924;2023-05-16T15:00:03;13.80;99.90
43087;DHT22;28708;52.224;6.924;2023-05-16T15:02:30;13.90;99.90
43087;DHT22;28708;52.224;6.924;2023-05-16T15:04:55;14.00;99.90
43087;DHT22;28708;52.224;6.924;2023-05-16T15:07:21;14.00;99.90
43087;DHT22;28708;52.224;6.924;2023-05-16T15:09:47;13.90;99.90
43087;DHT22;28708;52.224;6.924;2023-05-16T15:12:12;13.90;99.90
43087;DHT22;28708;52.224;6.924;2023-05-16T15:14:38;13.90;99.90
43087;DHT22;28708;52.224;6.924;2023-05-16T15:17:04;14.00;99.90
43087;DHT22;28708;52.224;6.924;2023-05-16T15:19:30;14.00;99.90
43087;DHT22;28708;52.224;6.924;2023-05-16T15:21:55;13.80;99.90
43087;DHT22;28708;52.224;6.924;2023-05-16T15:24:21;13.90;99.90
43087;DHT22;28708;52.224;6.924;2023-05-16T15:26:47;13.80;99.90
43087;DHT22;28708;52.224;6.924;2023-05-16T15:29:14;13.90;99.90
43087;DHT22;28708;52.224;6.924;2023-05-16T15:31:39;13.90;99.90
43087;DHT22;28708;52.224;6.924;2023-05-16T15:34:05;14.00;99.90
43087;DHT22;28708;52.224;6.924;2023-05-16T15:36:33;13.70;99.90
43087;DHT22;28708;52.224;6.924;2023-05-16T15:38:59;13.60;99.90
43087;DHT22;28708;52.224;6.924;2023-05-16T15:41:24;13.70;99.90
43087;DHT22;28708;52.224;6.924;2023-05-16T15:43:51;13.70;99.90
43087;DHT22;28708;52.224;6.924;2023-05-16T15:46:16;13.80;99.90
43087;DHT22;28708;52.224;6.924;2023-05-16T15:48:42;14.00;99.90
43087;DHT22;28708;52.224;6.924;2023-05-16T15:51:12;13.80;99.90
43087;DHT22;28708;52.224;6.924;2023-05-16T15:53:39;13.80;99.90
43087;DHT22;28708;52.224;6.924;2023-05-16T15:56:06;14.00;99.90
43087;DHT22;28708;52.224;6.924;2023-05-16T15:58:32;13.90;99.90
43087;DHT22;28708;52.224;6.924;2023-05-16T16:00:58;14.00;99.90